Terminal Aerodrome Forecast
Issued by NWS Lubbock, TX

Home | Current Version | Previous Version | Text Only | Print | Product List | Glossary On
Versions: 1 2 3 4 5 6 7 8 9 10 11 12 13 14 15 16 17 18 19 20 21 22
000
FTUS44 KLUB 281732
TAFLBB
TAF
KLBB 281732Z 2818/2918 07011KT P6SM -TSRA SCT025CB BKN070
      TEMPO 2818/2822 VRB20KT 6SM TSRA BKN025CB
     FM282200 16011KT P6SM SCT030 BKN100
      TEMPO 2822/2902 VRB20KT 6SM TSRA BKN030CB
     FM290700 19009KT 5SM BR OVC015=

USA.gov is the U.S. government's official web portal to all federal, state and local government web resources and services.